NEODyS-2

Near Earth Objects - Dynamic Site
NEODyS ∴ Observatories ∴ Site 691 ∴ Obs & residuals
Contact »
691  ▹ 
OBSERVATIONS AND RESIDUALS

691-Steward Observatory, Kitt Peak-Spacewatch

Detections | Residuals | Detections & Residuals

[1-200] [201-400] [401-600] [601-800] [801-1000] [1001-1200] [1201-1400] [1401-1600] [1601-1800] [1801-2000] [2001-2200] [2201-2400] [2401-2600] [2601-2800] [2801-3000] [3001-3200] [3201-3400] [3401-3600] [3601-3800] [3801-4000] [4001-4200] [4201-4400] [4401-4600] [4601-4800] [4801-5000] [5001-5200] [5201-5400] [5401-5600] [5601-5800] [5801-6000] [6001-6200] [6201-6400] [6401-6600] [6601-6800] [6801-7000] [7001-7200] [7201-7400] [7401-7600] [7601-7800] [7801-8000] [8001-8200] [8201-8400] [8401-8600] [8601-8800] [8801-9000] [9001-9200] [9201-9400] [9401-9600] [9601-9800] [9801-10000] [10001-10200] [10201-10400] [10401-10600] [10601-10800] [10801-11000] [11001-11200] [11201-11400] [11401-11600] [11601-11800] [11801-12000] [12001-12200] [12201-12400] [12401-12600] [12601-12800] [12801-13000] [13001-13200] [13201-13400] [13401-13600] [13601-13800] [13801-14000] [14001-14200] [14201-14400] [14401-14600] [14601-14800] [14801-15000] [15001-15200] [15201-15400] [15401-15600] [15601-15800] [15801-16000] [16001-16200] [16201-16400] [16401-16600] [16601-16800] [16801-17000] [17001-17200] [17201-17400] [17401-17600] [17601-17800] [17801-18000] [18001-18200] [18201-18400] [18401-18600] [18601-18800] [18801-19000] [19001-19200] [19201-19400] [19401-19600] [19601-19800] [19801-20000] [20001-20200] [20201-20400] [20401-20600] [20601-20800] [20801-21000] [21001-21200] [21201-21400] [21401-21600] [21601-21800] [21801-22000] [22001-22200] [22201-22400] [22401-22600] [22601-22800] [22801-23000] [23001-23200] [23201-23400] [23401-23600] [23601-23800] [23801-24000] [24001-24200] [24201-24400] [24401-24600] [24601-24800] [24801-25000] [25001-25200] [25201-25400] [25401-25600] [25601-25800] [25801-26000] [26001-26200] [26201-26400] [26401-26600] [26601-26800] [26801-27000] [27001-27200] [27201-27400] [27401-27600] [27601-27800] [27801-28000] [28001-28200] [28201-28400] [28401-28600] [28601-28800] [28801-29000] [29001-29200] [29201-29400] [29401-29600] [29601-29800] [29801-30000] [30001-30200] [30201-30400] [30401-30600] [30601-30800] [30801-31000] [31001-31200] [31201-31400] [31401-31600] [31601-31800] [31801-32000] [32001-32200] [32201-32400] [32401-32600] [32601-32800] [32801-33000] [33001-33200] [33201-33400] [33401-33600] [33601-33800] [33801-34000] [34001-34200] [34201-34400] [34401-34600] [34601-34800] [34801-35000] [35001-35200] [35201-35400] [35401-35600] [35601-35800] [35801-36000] [36001-36200] [36201-36400] [36401-36600] [36601-36800] [36801-37000] [37001-37200] [37201-37400] [37401-37600] [37601-37800] [37801-38000] [38001-38200] [38201-38400] [38401-38600] [38601-38800] [38801-39000] [39001-39200] [39201-39400] [39401-39600] [39601-39800] [39801-40000] [40001-40200] [40201-40400] [40401-40600] [40601-40800] [40801-41000] [41001-41200] [41201-41400] [41401-41600] [41601-41800] [41801-42000] [42001-42200] [42201-42400] [42401-42600] [42601-42800] [42801-43000] [43001-43200] [43201-43400] [43401-43600] [43601-43800] [43801-44000] [44001-44200] [44201-44400] [44401-44600] [44601-44800] [44801-45000] [45001-45200] [45201-45400] [45401-45600] [45601-45800] [45801-46000] [46001-46200] [46201-46400] [46401-46600] [46601-46800] [46801-47000] [47001-47200] [47201-47400] [47401-47600] [47601-47800] [47801-48000] [48001-48200] [48201-48400] [48401-48600] [48601-48800] [48801-49000] [49001-49200] [49201-49400] [49401-49600] [49601-49800] [49801-50000] [50001-50200] [50201-50388]

Designation T Tech N Date Right Ascension Declination Apparent Magnitude Star Catalog Site code χ Used A Used M
yr-mo-day precision hr:min:sec precision rms F bias residual deg min sec precision rms F bias residual mag/col rms residual
2011KW19 O C H 2011-06-24.24550 1.000E-05 17:13:06.200 1.500E-01 0.500 F -0.017 -0.201 +13° 49' 54.60" 1.000E-01 0.500 F 0.163 0.165 20.7 V 0.70 0.33 o 691 0.53 Yes Yes
2011HL7 O C 2011-06-24.25568 1.000E-05 17:13:11.240 1.500E-01 0.500 F 0.044 -0.276 +12° 09' 41.50" 1.000E-01 0.500 F 0.227 0.026 20.8 V 0.70 0.60 o 691 0.56 Yes Yes
2011KW19 O C H 2011-06-24.26327 1.000E-05 17:13:05.630 1.500E-01 0.500 F -0.017 -0.538 +13° 49' 49.40" 1.000E-01 0.500 F 0.163 -0.189 20.4 V 0.70 0.03 o 691 1.16 Yes Yes
2011HL7 O C 2011-06-24.27344 1.000E-05 17:13:10.970 1.500E-01 0.500 F 0.044 -0.872 +12° 09' 32.30" 1.000E-01 0.500 F 0.227 -0.120 20.1 V 0.70 -0.10 o 691 1.78 Yes Yes
2011HL7 O C 2011-06-24.29123 1.000E-05 17:13:10.790 1.500E-01 0.500 F 0.044 -0.151 +12° 09' 23.20" 1.000E-01 0.500 F 0.227 -0.085 20.1 V 0.70 -0.10 o 691 0.35 Yes Yes
1999RM28 O C H 2011-06-24.31073 1.000E-05 20:22:51.360 1.500E-01 0.500 F 0.038 0.348 +02° 56' 03.50" 1.000E-01 0.500 F 0.189 -0.049 o 691 0.70 Yes No
1999RM28 O C H 2011-06-24.32899 1.000E-05 20:22:50.520 1.500E-01 0.500 F 0.038 0.399 +02° 55' 56.70" 1.000E-01 0.500 F 0.189 -0.006 19.7 V 0.70 -0.11 o 691 0.80 Yes Yes
2010YH O C H 2011-06-24.36512 1.000E-05 21:08:06.670 1.500E-01 0.500 F -0.024 -0.462 -08° 24' 33.90" 1.000E-01 0.500 F 0.169 -0.355 21.0 V 0.70 -0.21 o 691 1.50 Yes Yes
2010YH O C H 2011-06-24.40059 1.000E-05 21:08:02.270 1.500E-01 0.500 F -0.024 0.990 -08° 24' 21.70" 1.000E-01 0.500 F 0.169 -0.431 o 691 2.42 Yes No
2003YE45 O C H 2011-06-24.41934 1.000E-05 01:42:07.500 1.500E-01 0.500 F -0.169 0.989 +26° 47' 25.10" 1.000E-01 0.500 F 0.299 -0.333 o 691 2.09 Yes No
2003YE45 O C H 2011-06-24.43207 1.000E-05 01:42:09.360 1.500E-01 0.500 F -0.169 1.145 +26° 47' 43.50" 1.000E-01 0.500 F 0.299 0.814 o 691 2.81 Yes No
2003YE45 O C H 2011-06-24.44478 1.000E-05 01:42:11.120 1.500E-01 0.500 F -0.169 0.032 +26° 48' 00.20" 1.000E-01 0.500 F 0.299 0.296 21.4 V 0.70 0.59 o 691 0.59 Yes Yes
2008JV19 O C 2011-06-25.18795 1.000E-05 16:33:44.070 1.500E-01 0.500 F 0.179 0.153 +07° 19' 03.70" 1.000E-01 0.500 F 0.163 -0.346 19.8 V 0.70 0.21 o 691 0.76 Yes Yes
2008JV19 O C 2011-06-25.20569 1.000E-05 16:33:41.210 1.500E-01 0.500 F 0.179 0.022 +07° 18' 37.30" 1.000E-01 0.500 F 0.163 -0.379 19.5 V 0.70 -0.09 o 691 0.76 Yes Yes
2008JV19 O C 2011-06-25.22341 1.000E-05 16:33:38.350 1.500E-01 0.500 F 0.179 -0.102 +07° 18' 11.30" 1.000E-01 0.500 F 0.163 0.011 19.6 V 0.70 0.01 o 691 0.21 Yes Yes
2009CQ5 O C 2011-06-28.37654 1.000E-05 01:26:21.270 1.500E-01 0.500 F -0.160 -0.385 +25° 29' 01.20" 1.000E-01 0.500 F 0.300 0.175 19.1 V 0.70 0.70 o 691 0.85 Yes Yes
1997WU22 O C 2011-06-28.38399 1.000E-05 01:52:42.460 1.500E-01 0.500 F -0.131 0.285 +26° 27' 32.80" 1.000E-01 0.500 F 0.265 -0.044 19.8 V 0.70 0.47 o 691 0.58 Yes Yes
2009CQ5 O C 2011-06-28.38925 1.000E-05 01:26:24.220 1.500E-01 0.500 F -0.160 -0.168 +25° 29' 55.20" 1.000E-01 0.500 F 0.300 -0.024 19.1 V 0.70 0.70 o 691 0.34 Yes Yes
1997WU22 O C 2011-06-28.39670 1.000E-05 01:52:43.850 1.500E-01 0.500 F -0.131 -0.142 +26° 27' 43.30" 1.000E-01 0.500 F 0.265 0.035 19.8 V 0.70 0.47 o 691 0.29 Yes Yes
2009CQ5 O C 2011-06-28.40196 1.000E-05 01:26:27.150 1.500E-01 0.500 F -0.160 -0.101 +25° 30' 49.20" 1.000E-01 0.500 F 0.300 -0.199 19.1 V 0.70 0.70 o 691 0.45 Yes Yes
1997WU22 O C 2011-06-28.40941 1.000E-05 01:52:45.270 1.500E-01 0.500 F -0.131 -0.138 +26° 27' 53.60" 1.000E-01 0.500 F 0.265 -0.081 19.7 V 0.70 0.37 o 691 0.32 Yes Yes
2011ND O C 2011-07-01.16989 1.000E-05 16:13:26.680 1.500E-01 0.500 F 0.120 0.169 -00° 58' 33.70" 1.000E-01 0.500 F 0.154 0.110 20.7 V 0.70 -0.09 o 691 0.43 Yes Yes
2011ND O C 2011-07-01.19377 1.000E-05 16:13:28.530 1.500E-01 0.500 F 0.120 -0.597 -00° 58' 56.90" 1.000E-01 0.500 F 0.154 0.454 20.7 V 0.70 -0.09 o 691 1.59 Yes Yes
2011ND O C 2011-07-01.21764 1.000E-05 16:13:30.470 1.500E-01 0.500 F 0.120 0.041 -00° 59' 20.80" 1.000E-01 0.500 F 0.154 0.106 20.9 V 0.70 0.11 o 691 0.24 Yes Yes
2006MJ10 O C 2011-07-01.24421 1.000E-05 16:54:19.570 1.500E-01 0.500 F 0.014 -0.472 +10° 25' 57.40" 1.000E-01 0.500 F 0.191 -0.152 20.0 V 0.70 -0.15 o 691 1.00 Yes Yes
2011HL7 O C 2011-07-01.24918 1.000E-05 17:13:20.230 1.500E-01 0.500 F 0.094 0.044 +10° 56' 11.10" 1.000E-01 0.500 F 0.208 -0.159 20.1 V 0.70 -0.36 o 691 0.34 Yes Yes
2006MJ10 O C 2011-07-01.26202 1.000E-05 16:54:16.520 1.500E-01 0.500 F 0.014 -0.414 +10° 25' 28.40" 1.000E-01 0.500 F 0.191 -0.023 19.9 V 0.70 -0.25 o 691 0.84 Yes Yes
2011HL7 O C 2011-07-01.26699 1.000E-05 17:13:20.200 1.500E-01 0.500 F 0.094 -0.144 +10° 55' 58.10" 1.000E-01 0.500 F 0.208 -0.006 20.0 V 0.70 -0.46 o 691 0.29 Yes Yes
2006MJ10 O C 2011-07-01.27980 1.000E-05 16:54:13.470 1.500E-01 0.500 F 0.061 -0.495 +10° 24' 59.10" 1.000E-01 0.500 F 0.181 -0.189 20.1 V 0.70 -0.05 o 691 1.07 Yes Yes
2011HL7 O C 2011-07-01.28477 1.000E-05 17:13:20.170 1.500E-01 0.500 F 0.094 -0.363 +10° 55' 44.80" 1.000E-01 0.500 F 0.208 -0.122 20.0 V 0.70 -0.46 o 691 0.77 Yes Yes
1999VL12 O C 2011-07-01.41848 1.000E-05 01:23:27.110 1.500E-01 0.500 F -0.124 -0.236 +29° 49' 53.60" 1.000E-01 0.500 F 0.203 -0.011 19.9 V 0.70 -0.33 o 691 0.48 Yes Yes
2000YL29 O C 2011-07-01.42096 1.000E-05 01:32:58.500 1.500E-01 0.500 F -0.055 -0.397 +29° 42' 31.30" 1.000E-01 0.500 F 0.227 -0.033 19.0 V 0.70 0.45 o 691 0.80 Yes Yes
2009CQ5 O C 2011-07-01.42344 1.000E-05 01:38:28.490 1.500E-01 0.500 F -0.089 -0.225 +28° 56' 50.30" 1.000E-01 0.500 F 0.165 -0.057 18.9 V 0.70 0.45 o 691 0.46 Yes Yes
1999VL12 O C 2011-07-01.43118 1.000E-05 01:23:29.030 1.500E-01 0.500 F -0.124 -0.177 +29° 50' 04.90" 1.000E-01 0.500 F 0.203 0.036 20.0 V 0.70 -0.23 o 691 0.36 Yes Yes
2000YL29 O C 2011-07-01.43366 1.000E-05 01:33:01.420 1.500E-01 0.500 F -0.055 -0.310 +29° 42' 27.40" 1.000E-01 0.500 F 0.227 -0.113 19.0 V 0.70 0.45 o 691 0.66 Yes Yes
2009CQ5 O C 2011-07-01.43614 1.000E-05 01:38:31.560 1.500E-01 0.500 F -0.089 -0.021 +28° 57' 41.60" 1.000E-01 0.500 F 0.165 0.141 18.9 V 0.70 0.45 o 691 0.29 Yes Yes
1999VL12 O C 2011-07-01.44388 1.000E-05 01:23:30.940 1.500E-01 0.500 F -0.124 -0.217 +29° 50' 16.20" 1.000E-01 0.500 F 0.203 0.094 19.8 V 0.70 -0.43 o 691 0.48 Yes Yes
2000YL29 O C 2011-07-01.44637 1.000E-05 01:33:04.360 1.500E-01 0.500 F -0.055 0.062 +29° 42' 25.00" 1.000E-01 0.500 F 0.227 1.330 18.7 V 0.70 0.15 o 691 2.67 Yes Yes
2009CQ5 O C 2011-07-01.44885 1.000E-05 01:38:34.600 1.500E-01 0.500 F -0.089 -0.139 +28° 58' 32.50" 1.000E-01 0.500 F 0.165 -0.058 18.9 V 0.70 0.45 o 691 0.30 Yes Yes
2011MV1 O C 2011-07-02.31223 1.000E-05 21:24:39.240 1.500E-01 0.500 F -0.056 -0.109 +00° 24' 52.30" 1.000E-01 0.500 F 0.236 0.026 19.9 V 0.70 0.06 o 691 0.23 Yes Yes
2011MV1 O C 2011-07-02.32993 1.000E-05 21:24:40.650 1.500E-01 0.500 F -0.056 -0.305 +00° 25' 27.00" 1.000E-01 0.500 F 0.236 -0.084 20.1 V 0.70 0.26 o 691 0.64 Yes Yes
2011MV1 O C 2011-07-02.34766 1.000E-05 21:24:42.070 1.500E-01 0.500 F -0.056 -0.229 +00° 26' 02.70" 1.000E-01 0.500 F 0.236 0.745 21.0 V 0.70 1.17 o 691 1.57 Yes Yes
2006AT2 O C 2011-07-02.37553 1.000E-05 21:39:29.430 1.500E-01 0.500 F -0.021 -0.043 -05° 25' 59.20" 1.000E-01 0.500 F 0.210 -0.034 21.6 V 0.70 0.14 o 691 0.11 Yes Yes
2006AT2 O C 2011-07-02.39326 1.000E-05 21:39:28.700 1.500E-01 0.500 F -0.021 -0.459 -05° 26' 06.30" 1.000E-01 0.500 F 0.210 0.238 21.0 V 0.70 -0.46 o 691 1.04 Yes Yes
2006AT2 O C 2011-07-02.41097 1.000E-05 21:39:28.000 1.500E-01 0.500 F -0.021 -0.418 -05° 26' 14.20" 1.000E-01 0.500 F 0.210 -0.301 21.0 V 0.70 -0.46 o 691 1.03 Yes Yes
2003SA224 O C 2011-08-26.29693 1.000E-05 00:21:06.850 1.500E-01 0.500 F -0.221 -0.244 -04° 21' 42.50" 1.000E-01 0.500 F 0.230 -0.066 o 691 0.50 Yes No
2003SA224 O C 2011-08-26.31489 1.000E-05 00:21:05.740 1.500E-01 0.500 F -0.221 0.209 -04° 21' 44.70" 1.000E-01 0.500 F 0.230 -0.507 o 691 1.10 Yes No
2003SA224 O C 2011-08-26.33046 1.000E-05 00:21:04.720 1.500E-01 0.500 F -0.221 -0.219 -04° 21' 45.80" 1.000E-01 0.500 F 0.230 -0.084 o 691 0.47 Yes No
2005TB O C 2011-09-07.42571 1.000E-05 06:01:50.940 1.500E-01 0.500 F -0.128 -0.256 +20° 42' 11.50" 1.000E-01 0.500 F 0.296 0.233 20.6 V 0.70 -0.17 o 691 0.69 Yes Yes
2005TB O C 2011-09-07.43842 1.000E-05 06:01:52.240 1.500E-01 0.500 F -0.128 -0.431 +20° 41' 59.40" 1.000E-01 0.500 F 0.296 -0.096 20.5 V 0.70 -0.27 o 691 0.88 Yes Yes
2005TB O C 2011-09-07.45114 1.000E-05 06:01:53.580 1.500E-01 0.500 F -0.128 -0.027 +20° 41' 47.60" 1.000E-01 0.500 F 0.296 -0.109 21.0 V 0.70 0.23 o 691 0.22 Yes Yes
Camarillo O C 2011-09-08.40227 1.000E-05 01:08:22.540 1.500E-01 0.500 F -0.273 -0.491 +05° 25' 13.60" 1.000E-01 0.500 F 0.262 0.037 o 691 0.99 Yes No
Camarillo O C 2011-09-08.42004 1.000E-05 01:08:21.720 1.500E-01 0.500 F -0.273 -0.427 +05° 25' 13.00" 1.000E-01 0.500 F 0.262 0.368 o 691 1.13 Yes No
Camarillo O C 2011-09-08.43776 1.000E-05 01:08:20.900 1.500E-01 0.500 F -0.273 -0.400 +05° 25' 11.80" 1.000E-01 0.500 F 0.262 0.108 o 691 0.83 Yes No
2003SA224 O C 2011-09-09.18338 1.000E-05 00:03:26.550 1.500E-01 0.612 F -0.243 -0.706 -04° 51' 51.20" 1.000E-01 0.612 F 0.184 -0.181 o 691 1.19 Yes No
2003SA224 O C 2011-09-09.20128 1.000E-05 00:03:24.950 1.500E-01 0.612 F -0.243 -0.211 -04° 51' 53.90" 1.000E-01 0.612 F 0.184 -0.107 o 691 0.38 Yes No
2003SA224 O C 2011-09-09.21915 1.000E-05 00:03:23.290 1.500E-01 0.612 F -0.243 -0.576 -04° 51' 56.60" 1.000E-01 0.612 F 0.184 -0.043 o 691 0.94 Yes No
2003SA224 O C 2011-09-09.24568 1.000E-05 00:03:20.890 1.500E-01 0.612 F -0.243 -0.027 -04° 52' 00.60" 1.000E-01 0.612 F 0.184 0.053 o 691 0.10 Yes No
2003SA224 O C 2011-09-09.26342 1.000E-05 00:03:19.240 1.500E-01 0.612 F -0.243 -0.261 -04° 52' 03.30" 1.000E-01 0.612 F 0.184 0.085 o 691 0.45 Yes No
2003SA224 O C 2011-09-09.28116 1.000E-05 00:03:17.550 1.500E-01 0.612 F -0.243 -1.043 -04° 52' 06.50" 1.000E-01 0.612 F 0.184 -0.388 o 691 1.82 Yes No
2008RG1 O C 2011-09-09.29235 1.000E-05 00:27:58.120 1.500E-01 0.500 F -0.115 -0.215 +05° 46' 13.40" 1.000E-01 0.500 F 0.264 -0.022 o 691 0.44 Yes No
2008RG1 O C 2011-09-09.31011 1.000E-05 00:27:51.110 1.500E-01 0.500 F -0.115 -0.299 +05° 46' 35.10" 1.000E-01 0.500 F 0.264 0.067 o 691 0.62 Yes No
2008RG1 O C 2011-09-09.32783 1.000E-05 00:27:44.140 1.500E-01 0.500 F -0.115 0.050 +05° 46' 56.60" 1.000E-01 0.500 F 0.264 0.083 o 691 0.20 Yes No
Cleobulus O C 2011-09-20.22108 1.000E-05 01:14:58.880 1.500E-01 0.500 F -0.224 0.951 +05° 19' 12.30" 1.000E-01 0.500 F 0.310 -0.038 19.1 V 0.70 -0.10 o 691 1.90 Yes Yes
Cleobulus O C 2011-09-20.23880 1.000E-05 01:14:57.960 1.500E-01 0.500 F -0.224 -0.429 +05° 19' 07.70" 1.000E-01 0.500 F 0.310 0.061 19.3 V 0.70 0.10 o 691 0.87 Yes Yes
Cleobulus O C 2011-09-20.25653 1.000E-05 01:14:57.130 1.500E-01 0.500 F -0.224 -0.406 +05° 19' 03.00" 1.000E-01 0.500 F 0.310 0.070 19.3 V 0.70 0.11 o 691 0.83 Yes Yes
2000FN10 O C 2011-09-21.21602 1.000E-05 01:04:57.690 1.500E-01 0.500 F -0.209 -0.201 +06° 37' 14.00" 1.000E-01 0.500 F 0.321 -0.200 19.1 V 0.70 0.00 o 691 0.57 Yes Yes
2000FN10 O C 2011-09-21.23377 1.000E-05 01:04:55.580 1.500E-01 0.500 F -0.209 -0.416 +06° 37' 18.50" 1.000E-01 0.500 F 0.321 0.019 19.2 V 0.70 0.10 o 691 0.84 Yes Yes
2000FN10 O C 2011-09-21.25154 1.000E-05 01:04:53.500 1.500E-01 0.500 F -0.209 -0.086 +06° 37' 22.60" 1.000E-01 0.500 F 0.321 -0.157 19.4 V 0.70 0.31 o 691 0.36 Yes Yes
2011SS26 O C 2011-09-22.22079 1.000E-05 01:17:04.720 1.500E-01 0.500 F -0.258 -0.141 +12° 20' 26.40" 1.000E-01 0.500 F 0.331 0.267 20.3 V 0.70 -0.22 o 691 0.69 Yes Yes
2011SS26 O C 2011-09-22.23858 1.000E-05 01:17:01.610 1.500E-01 0.500 F -0.258 0.053 +12° 20' 34.40" 1.000E-01 0.500 F 0.331 -0.147 20.5 V 0.70 -0.02 o 691 0.35 Yes Yes
2011SS26 O C 2011-09-22.25636 1.000E-05 01:16:58.420 1.500E-01 0.500 F -0.258 -0.282 +12° 20' 42.90" 1.000E-01 0.500 F 0.331 0.138 20.6 V 0.70 0.08 o 691 0.71 Yes Yes
2009RB4 O C 2011-09-23.14399 1.000E-05 22:24:57.290 1.500E-01 0.500 F 0.048 -0.158 -04° 32' 01.50" 1.000E-01 0.500 F 0.103 -0.002 19.6 V 0.70 0.73 o 691 0.32 Yes Yes
2009RB4 O C 2011-09-23.15458 1.000E-05 22:24:57.170 1.500E-01 0.500 F 0.048 -0.074 -04° 32' 13.70" 1.000E-01 0.500 F 0.103 0.070 19.5 V 0.70 0.63 o 691 0.20 Yes Yes
2009RB4 O C 2011-09-23.16517 1.000E-05 22:24:57.030 1.500E-01 0.500 F 0.048 -0.263 -04° 32' 25.90" 1.000E-01 0.500 F 0.103 0.134 19.2 V 0.70 0.33 o 691 0.59 Yes Yes
2005UP156 O C 2011-09-23.45908 1.000E-05 02:47:50.390 1.500E-01 0.500 F -0.169 -0.193 +15° 07' 53.20" 1.000E-01 0.500 F 0.260 0.005 19.3 V 0.70 0.06 o 691 0.39 Yes Yes
2005UP156 O C 2011-09-23.47687 1.000E-05 02:47:49.480 1.500E-01 0.500 F -0.169 -0.127 +15° 07' 44.80" 1.000E-01 0.500 F 0.260 -0.081 19.3 V 0.70 0.06 o 691 0.30 Yes Yes
2005UP156 O C 2011-09-23.49464 1.000E-05 02:47:48.570 1.500E-01 0.500 F -0.169 -0.100 +15° 07' 36.60" 1.000E-01 0.500 F 0.260 0.054 19.3 V 0.70 0.06 o 691 0.23 Yes Yes
1998XB O C 2011-09-26.47359 1.000E-05 08:06:15.040 1.500E-01 0.500 F -0.007 -0.697 +18° 26' 07.80" 1.000E-01 0.500 F 0.167 -0.035 18.6 V 0.70 -0.13 o 691 1.40 Yes Yes
1998XB O C 2011-09-26.48629 1.000E-05 08:06:17.140 1.500E-01 0.500 F -0.007 -0.252 +18° 26' 08.40" 1.000E-01 0.500 F 0.167 0.021 18.7 V 0.70 -0.03 o 691 0.50 Yes Yes
1998XB O C 2011-09-26.49898 1.000E-05 08:06:19.210 1.500E-01 0.500 F -0.007 -0.177 +18° 26' 08.80" 1.000E-01 0.500 F 0.167 -0.115 18.8 V 0.70 0.07 o 691 0.42 Yes Yes
2011SJ16 O C 2011-09-28.31742 1.000E-05 02:13:49.440 1.500E-01 0.500 F -0.216 -0.132 +06° 28' 44.40" 1.000E-01 0.500 F 0.211 -0.170 18.8 V 0.70 0.22 o 691 0.43 Yes Yes
2011SJ16 O C 2011-09-28.33512 1.000E-05 02:13:51.130 1.500E-01 0.500 F -0.216 -0.237 +06° 27' 59.30" 1.000E-01 0.500 F 0.211 0.090 18.8 V 0.70 0.22 o 691 0.51 Yes Yes
2011SJ16 O C 2011-09-28.35283 1.000E-05 02:13:52.830 1.500E-01 0.500 F -0.216 -0.152 +06° 27' 13.60" 1.000E-01 0.500 F 0.211 -0.128 19.0 V 0.70 0.42 o 691 0.40 Yes Yes
2011SH189 O C 2011-09-28.37414 1.000E-05 02:31:55.250 1.500E-01 0.500 F -0.115 -0.384 +09° 41' 29.00" 1.000E-01 0.500 F 0.197 0.684 21.0 V 0.70 -0.12 o 691 1.59 Yes Yes
2011SJ189 O C 2011-09-28.37662 1.000E-05 02:37:57.900 1.500E-01 0.500 F -0.147 -0.100 +09° 00' 47.50" 1.000E-01 0.500 F 0.221 0.097 20.9 V 0.70 0.13 o 691 0.29 Yes Yes
2011SH189 O C 2011-09-28.39189 1.000E-05 02:31:57.170 1.500E-01 0.500 F -0.115 -0.789 +09° 40' 44.10" 1.000E-01 0.500 F 0.197 -0.090 21.5 V 0.70 0.39 o 691 1.60 Yes Yes
2011SJ189 O C 2011-09-28.39438 1.000E-05 02:38:00.400 1.500E-01 0.500 F -0.147 -0.365 +09° 01' 24.70" 1.000E-01 0.500 F 0.221 -0.092 20.5 V 0.70 -0.27 o 691 0.77 Yes Yes
2011SH189 O C 2011-09-28.40965 1.000E-05 02:31:59.150 1.500E-01 0.500 F -0.115 -0.286 +09° 39' 59.70" 1.000E-01 0.500 F 0.197 -0.192 20.7 V 0.70 -0.41 o 691 0.70 Yes Yes
2011SJ189 O C 2011-09-28.41213 1.000E-05 02:38:02.930 1.500E-01 0.500 F -0.147 -0.142 +09° 02' 02.10" 1.000E-01 0.500 F 0.221 0.001 20.9 V 0.70 0.13 o 691 0.29 Yes Yes
2003UX34 O C 2011-09-29.36464 1.000E-05 02:14:53.540 1.500E-01 0.500 F -0.303 -0.077 +15° 03' 26.40" 1.000E-01 0.500 F 0.236 0.098 20.6 V 0.70 -0.23 o 691 0.25 Yes Yes
2003UX34 O C 2011-09-29.38242 1.000E-05 02:14:50.010 1.500E-01 0.500 F -0.303 -0.255 +15° 03' 12.20" 1.000E-01 0.500 F 0.236 0.089 20.6 V 0.70 -0.23 o 691 0.53 Yes Yes
2003UX34 O C 2011-09-29.40020 1.000E-05 02:14:46.500 1.500E-01 0.500 F -0.303 -0.133 +15° 02' 57.90" 1.000E-01 0.500 F 0.236 0.030 20.5 V 0.70 -0.33 o 691 0.27 Yes Yes
2011SJ189 O C 2011-09-30.42500 1.000E-05 02:43:18.840 1.500E-01 0.500 F -0.161 0.213 +10° 13' 41.60" 1.000E-01 0.500 F 0.136 -0.032 20.3 V 0.70 -0.41 o 691 0.44 Yes Yes
2011SJ189 O C 2011-09-30.44277 1.000E-05 02:43:21.350 1.500E-01 0.500 F -0.161 0.282 +10° 14' 20.30" 1.000E-01 0.500 F 0.136 0.293 20.7 V 0.70 -0.01 o 691 0.83 Yes Yes
2011SJ189 O C 2011-09-30.46054 1.000E-05 02:43:23.800 1.500E-01 0.500 F -0.161 -0.658 +10° 14' 57.60" 1.000E-01 0.500 F 0.136 -0.711 20.9 V 0.70 0.19 o 691 1.98 Yes Yes
2011SF108 O C 2011-10-01.16589 1.000E-05 01:04:49.140 1.500E-01 0.500 F -0.083 -0.555 +08° 24' 10.10" 1.000E-01 0.500 F 0.366 0.126 o 691 1.27 Yes No
2011SF108 O C 2011-10-01.18362 1.000E-05 01:04:47.460 1.500E-01 0.500 F -0.083 0.273 +08° 24' 10.60" 1.000E-01 0.500 F 0.366 0.199 o 691 0.75 Yes No
2011SF108 O C 2011-10-01.20135 1.000E-05 01:04:45.700 1.500E-01 0.500 F -0.083 0.023 +08° 24' 10.80" 1.000E-01 0.500 F 0.366 -0.014 o 691 0.06 Yes No
2002VU94 O C 2011-10-01.40347 1.000E-05 02:27:38.800 1.500E-01 0.500 F -0.313 -0.060 +20° 01' 01.60" 1.000E-01 0.500 F 0.228 -0.089 o 691 0.21 Yes No
2011QY11 O C 2011-10-01.40595 1.000E-05 02:39:08.800 1.500E-01 0.500 F -0.316 -0.157 +21° 00' 37.80" 1.000E-01 0.500 F 0.253 -0.074 o 691 0.38 Yes No
2002VU94 O C 2011-10-01.42126 1.000E-05 02:27:37.460 1.500E-01 0.500 F -0.313 -0.313 +20° 00' 53.10" 1.000E-01 0.500 F 0.228 0.134 o 691 0.68 Yes No
2011QY11 O C 2011-10-01.42375 1.000E-05 02:39:10.370 1.500E-01 0.500 F -0.316 0.016 +21° 00' 50.10" 1.000E-01 0.500 F 0.253 0.066 o 691 0.14 Yes No
2002VU94 O C 2011-10-01.43907 1.000E-05 02:27:36.160 1.500E-01 0.500 F -0.313 0.010 +20° 00' 44.40" 1.000E-01 0.500 F 0.228 0.193 o 691 0.39 Yes No
2011QY11 O C 2011-10-01.44156 1.000E-05 02:39:11.920 1.500E-01 0.500 F -0.316 -0.169 +21° 01' 01.90" 1.000E-01 0.500 F 0.253 -0.103 o 691 0.44 Yes No
Camarillo O C 2011-10-16.16842 1.000E-05 00:20:45.620 1.500E-01 0.500 F -0.200 0.000 +03° 28' 14.00" 1.000E-01 0.500 F 0.222 -0.040 18.3 V 0.70 0.34 o 691 0.08 Yes Yes
Camarillo O C 2011-10-16.23596 1.000E-05 00:20:39.600 1.500E-01 0.500 F -0.200 -0.159 +03° 27' 58.90" 1.000E-01 0.500 F 0.222 -0.015 18.2 V 0.70 0.24 o 691 0.32 Yes Yes
Camarillo O C 2011-10-16.30347 1.000E-05 00:20:33.580 1.500E-01 0.500 F -0.200 -0.233 +03° 27' 43.70" 1.000E-01 0.500 F 0.222 -0.029 18.1 V 0.70 0.14 o 691 0.47 Yes Yes
2002VU94 O C 2011-10-16.38753 1.000E-05 02:07:53.820 1.500E-01 0.500 F -0.320 -0.040 +17° 39' 14.20" 1.000E-01 0.500 F 0.227 -0.165 18.7 V 0.70 0.33 o 691 0.34 Yes Yes
2002VU94 O C 2011-10-16.40531 1.000E-05 02:07:52.310 1.500E-01 0.500 F -0.320 -0.016 +17° 39' 03.00" 1.000E-01 0.500 F 0.227 -0.094 18.6 V 0.70 0.23 o 691 0.19 Yes Yes
2002VU94 O C 2011-10-16.42308 1.000E-05 02:07:50.800 1.500E-01 0.500 F -0.320 -0.035 +17° 38' 51.60" 1.000E-01 0.500 F 0.227 -0.209 18.6 V 0.70 0.23 o 691 0.42 Yes Yes
2011SP68 O C 2011-10-17.20045 1.000E-05 01:36:08.760 1.500E-01 0.500 F -0.195 -0.237 +08° 15' 47.90" 1.000E-01 0.500 F 0.249 -0.336 19.2 V 0.70 -0.06 o 691 0.83 Yes Yes
1999YB O C 2011-10-17.20541 1.000E-05 01:50:34.080 1.500E-01 0.500 F -0.078 0.004 +08° 45' 22.60" 1.000E-01 0.500 F 0.210 0.037 18.1 V 0.70 0.29 o 691 0.08 Yes Yes
2011SP68 O C 2011-10-17.21311 1.000E-05 01:36:06.900 1.500E-01 0.500 F -0.195 0.060 +08° 16' 13.00" 1.000E-01 0.500 F 0.249 -0.203 19.3 V 0.70 0.04 o 691 0.43 Yes Yes
1999YB O C 2011-10-17.21808 1.000E-05 01:50:32.410 1.500E-01 0.500 F -0.078 -0.135 +08° 45' 24.60" 1.000E-01 0.500 F 0.210 -0.106 18.2 V 0.70 0.39 o 691 0.34 Yes Yes
2011SP68 O C 2011-10-17.22579 1.000E-05 01:36:05.000 1.500E-01 0.500 F -0.195 -0.074 +08° 16' 38.30" 1.000E-01 0.500 F 0.249 0.123 19.1 V 0.70 -0.16 o 691 0.29 Yes Yes
1999YB O C 2011-10-17.23074 1.000E-05 01:50:30.740 1.500E-01 0.500 F -0.078 -0.225 +08° 45' 26.70" 1.000E-01 0.500 F 0.210 -0.133 18.1 V 0.70 0.29 o 691 0.52 Yes Yes
2002AG29 O C 2011-10-17.24793 1.000E-05 02:03:24.480 1.500E-01 0.500 F -0.218 -0.009 +21° 57' 06.40" 1.000E-01 0.500 F 0.210 0.045 16.5 V 0.70 0.26 o 691 0.09 Yes Yes
2002AG29 O C 2011-10-17.26573 1.000E-05 02:03:21.660 1.500E-01 0.500 F -0.258 -0.011 +21° 55' 53.40" 1.000E-01 0.500 F 0.183 -1.257 16.0 V 0.70 -0.24 o 691 2.53 Yes Yes
2002AG29 O C 2011-10-17.28351 1.000E-05 02:03:18.850 1.500E-01 0.500 F -0.258 0.198 +21° 54' 43.00" 1.000E-01 0.500 F 0.183 0.091 16.5 V 0.70 0.26 o 691 0.44 Yes Yes
2011SW71 O C H 2011-10-17.31250 1.000E-05 02:33:29.050 1.500E-01 0.500 F -0.288 0.359 +17° 06' 34.40" 1.000E-01 0.500 F 0.300 -0.783 o 691 1.79 Yes No
2011SW71 O C H 2011-10-17.33028 1.000E-05 02:33:27.140 1.500E-01 0.500 F -0.288 0.333 +17° 06' 58.10" 1.000E-01 0.500 F 0.300 -1.163 o 691 2.51 Yes No
2011SW71 O C H 2011-10-17.34806 1.000E-05 02:33:25.210 1.500E-01 0.500 F -0.288 0.049 +17° 07' 23.00" 1.000E-01 0.500 F 0.300 -0.214 o 691 0.45 Yes No
2011UT O C 2011-10-17.41107 1.000E-05 03:18:31.840 1.500E-01 0.500 F -0.197 -0.129 +25° 52' 02.40" 1.000E-01 0.500 F 0.187 -0.055 19.3 V 0.70 0.02 o 691 0.32 Yes Yes
2011SO25 O C 2011-10-17.41853 1.000E-05 03:40:25.830 1.500E-01 0.500 F -0.079 -0.100 +25° 42' 43.40" 1.000E-01 0.500 F 0.183 -0.047 20.1 V 0.70 0.19 o 691 0.22 Yes Yes
2011UU O C 2011-10-17.41853 1.000E-05 03:38:31.930 1.500E-01 0.500 F -0.105 -0.332 +25° 43' 50.70" 1.000E-01 0.500 F 0.189 -0.086 20.0 V 0.70 -0.49 o 691 0.71 Yes Yes
2011UT O C 2011-10-17.42887 1.000E-05 03:18:32.280 1.500E-01 0.500 F -0.197 -0.126 +25° 52' 23.50" 1.000E-01 0.500 F 0.187 -0.043 19.4 V 0.70 0.11 o 691 0.30 Yes Yes
2011SO25 O C 2011-10-17.43632 1.000E-05 03:40:27.130 1.500E-01 0.500 F -0.079 -0.269 +25° 43' 04.20" 1.000E-01 0.500 F 0.183 0.080 20.0 V 0.70 0.10 o 691 0.57 Yes Yes
2011UU O C 2011-10-17.43632 1.000E-05 03:38:37.450 1.500E-01 0.500 F -0.105 -0.081 +25° 43' 15.10" 1.000E-01 0.500 F 0.189 -0.580 19.9 V 0.70 -0.59 o 691 1.21 Yes Yes
2011UT O C 2011-10-17.44665 1.000E-05 03:18:32.810 1.500E-01 0.500 F -0.197 0.059 +25° 52' 42.90" 1.000E-01 0.500 F 0.187 -0.091 19.4 V 0.70 0.10 o 691 0.23 Yes Yes
2011SO25 O C 2011-10-17.45411 1.000E-05 03:40:28.450 1.500E-01 0.500 F -0.079 -0.233 +25° 43' 24.50" 1.000E-01 0.500 F 0.183 -0.173 20.2 V 0.70 0.30 o 691 0.59 Yes Yes
2011UU O C 2011-10-17.45411 1.000E-05 03:38:42.990 1.500E-01 0.500 F -0.105 0.315 +25° 42' 40.20" 1.000E-01 0.500 F 0.189 -0.119 20.2 V 0.70 -0.29 o 691 0.70 Yes Yes
2000LY27 O C H 2011-10-17.47161 1.000E-05 09:54:28.260 1.500E-01 0.500 F 0.119 0.046 +11° 29' 04.90" 1.000E-01 0.500 F 0.127 -0.419 20.0 V 0.70 0.58 o 691 0.85 Yes Yes
2000LY27 O C H 2011-10-17.49701 1.000E-05 09:54:33.690 1.500E-01 0.500 F 0.119 -0.462 +11° 28' 22.50" 1.000E-01 0.500 F 0.127 0.183 19.9 V 0.70 0.48 o 691 1.00 Yes Yes
2002VU94 O C 2011-10-18.16890 1.000E-05 02:05:26.780 1.500E-01 0.500 F -0.332 -0.170 +17° 20' 23.90" 1.000E-01 0.500 F 0.200 0.012 18.7 V 0.70 0.36 o 691 0.34 Yes Yes
2002VU94 O C 2011-10-18.18668 1.000E-05 02:05:25.290 1.500E-01 0.500 F -0.332 -0.080 +17° 20' 12.80" 1.000E-01 0.500 F 0.200 0.120 18.9 V 0.70 0.56 o 691 0.29 Yes Yes
2002VU94 O C 2011-10-18.20445 1.000E-05 02:05:23.790 1.500E-01 0.500 F -0.332 -0.094 +17° 20' 01.60" 1.000E-01 0.500 F 0.200 0.136 18.6 V 0.70 0.26 o 691 0.33 Yes Yes
1996TY11 O C 2011-10-19.28094 1.000E-05 03:05:26.640 1.500E-01 0.500 F -0.108 -0.295 +20° 20' 11.40" 1.000E-01 0.500 F 0.254 0.219 21.0 V 0.70 0.42 o 691 0.74 Yes Yes
1996TY11 O C 2011-10-19.29873 1.000E-05 03:05:24.330 1.500E-01 0.500 F -0.108 0.002 +20° 20' 15.60" 1.000E-01 0.500 F 0.254 -0.518 20.7 V 0.70 0.12 o 691 1.04 Yes Yes
1996TY11 O C 2011-10-19.31654 1.000E-05 03:05:21.990 1.500E-01 0.500 F -0.108 -0.012 +20° 20' 21.00" 1.000E-01 0.500 F 0.254 -0.015 21.0 V 0.70 0.43 o 691 0.04 Yes Yes
Hephaistos O C 2011-10-19.37704 1.000E-05 03:46:19.290 1.500E-01 0.500 F -0.142 -0.280 +26° 07' 38.20" 1.000E-01 0.500 F 0.205 -0.024 19.4 V 0.70 0.10 o 691 0.56 Yes Yes
2011SO25 O C 2011-10-19.37704 1.000E-05 03:43:05.760 1.500E-01 0.500 F -0.079 -0.327 +26° 20' 47.60" 1.000E-01 0.500 F 0.183 0.941 21.3 V 0.70 1.44 o 691 2.02 Yes Yes
2011EF17 O C 2011-10-19.38550 1.000E-05 04:03:34.450 1.500E-01 0.500 F -0.063 -0.350 +26° 45' 54.40" 1.000E-01 0.500 F 0.245 0.021 20.2 V 0.70 0.00 o 691 0.72 Yes Yes
2011UU O C 2011-10-19.39075 1.000E-05 03:49:07.500 1.500E-01 0.500 F -0.175 -0.238 +24° 37' 39.00" 1.000E-01 0.500 F 0.264 -0.099 20.2 V 0.70 -0.29 o 691 0.52 Yes Yes
Hephaistos O C 2011-10-19.39836 1.000E-05 03:46:18.090 1.500E-01 0.500 F -0.142 -0.050 +26° 07' 36.90" 1.000E-01 0.500 F 0.205 -0.052 19.4 V 0.70 0.10 o 691 0.14 Yes Yes
2011SO25 O C 2011-10-19.39836 1.000E-05 03:43:07.250 1.500E-01 0.500 F -0.079 0.090 +26° 21' 11.10" 1.000E-01 0.500 F 0.183 -0.198 20.0 V 0.70 0.15 o 691 0.44 Yes Yes
2011EF17 O C 2011-10-19.40335 1.000E-05 04:03:30.960 1.500E-01 0.500 F -0.063 -0.621 +26° 45' 49.80" 1.000E-01 0.500 F 0.245 0.039 20.0 V 0.70 -0.20 o 691 1.27 Yes Yes
2011UU O C 2011-10-19.40859 1.000E-05 03:49:12.710 1.500E-01 0.500 F -0.175 -0.555 +24° 37' 02.20" 1.000E-01 0.500 F 0.264 0.272 20.1 V 0.70 -0.39 o 691 1.26 Yes Yes
Hephaistos O C 2011-10-19.41620 1.000E-05 03:46:17.060 1.500E-01 0.500 F -0.142 -0.202 +26° 07' 35.70" 1.000E-01 0.500 F 0.205 -0.170 19.3 V 0.70 0.00 o 691 0.53 Yes Yes
2011SO25 O C 2011-10-19.41620 1.000E-05 03:43:08.450 1.500E-01 0.500 F -0.079 -0.193 +26° 21' 31.90" 1.000E-01 0.500 F 0.183 0.127 19.9 V 0.70 0.05 o 691 0.47 Yes Yes
2011EF17 O C 2011-10-19.42117 1.000E-05 04:03:27.510 1.500E-01 0.500 F -0.063 -0.433 +26° 45' 45.20" 1.000E-01 0.500 F 0.245 0.126 20.3 V 0.70 0.10 o 691 0.92 Yes Yes
2011UU O C 2011-10-19.42639 1.000E-05 03:49:17.990 1.500E-01 0.500 F -0.175 0.223 +24° 36' 24.30" 1.000E-01 0.500 F 0.264 -0.289 20.1 V 0.70 -0.39 o 691 0.74 Yes Yes
1990BG O C 2011-10-19.48663 1.000E-05 10:02:58.340 1.500E-01 0.500 F 0.027 -0.037 +15° 06' 02.10" 1.000E-01 0.500 F 0.227 -0.124 18.8 V 0.70 0.27 o 691 0.26 Yes Yes
1990BG O C 2011-10-19.49934 1.000E-05 10:03:00.410 1.500E-01 0.500 F 0.027 -0.319 +15° 06' 01.30" 1.000E-01 0.500 F 0.227 0.034 18.8 V 0.70 0.27 o 691 0.64 Yes Yes
1990BG O C 2011-10-19.51207 1.000E-05 10:03:02.510 1.500E-01 0.500 F 0.027 -0.196 +15° 06' 00.30" 1.000E-01 0.500 F 0.227 -0.003 18.9 V 0.70 0.37 o 691 0.39 Yes Yes
2011SJ189 O C 2011-10-20.31566 1.000E-05 03:31:56.960 1.500E-01 0.500 F -0.227 0.190 +23° 06' 20.50" 1.000E-01 0.500 F 0.224 -0.317 20.7 V 0.70 0.41 o 691 0.76 Yes Yes
2011SJ189 O C 2011-10-20.33344 1.000E-05 03:31:58.870 1.500E-01 0.500 F -0.227 -0.413 +23° 07' 02.20" 1.000E-01 0.500 F 0.224 -0.294 20.0 V 0.70 -0.29 o 691 1.04 Yes Yes
2011SJ189 O C 2011-10-20.35123 1.000E-05 03:32:00.820 1.500E-01 0.500 F -0.227 -0.316 +23° 07' 44.10" 1.000E-01 0.500 F 0.224 0.114 20.0 V 0.70 -0.29 o 691 0.69 Yes Yes
2008UX O C 2011-10-20.37885 1.000E-05 03:56:13.000 1.500E-01 0.500 F -0.121 0.171 +13° 42' 03.40" 1.000E-01 0.500 F 0.120 -0.191 19.9 V 0.70 0.09 o 691 0.52 Yes Yes
2008UX O C 2011-10-20.39661 1.000E-05 03:56:08.390 1.500E-01 0.500 F -0.121 -0.920 +13° 42' 20.20" 1.000E-01 0.500 F 0.120 -0.043 20.4 V 0.70 0.59 o 691 1.86 Yes Yes
2008UX O C 2011-10-20.41440 1.000E-05 03:56:03.850 1.500E-01 0.500 F -0.121 -0.773 +13° 42' 37.00" 1.000E-01 0.500 F 0.120 0.137 19.9 V 0.70 0.10 o 691 1.58 Yes Yes
2011SU232 O C 2011-10-21.15525 1.000E-05 01:35:02.720 1.500E-01 0.500 F -0.326 -0.233 +18° 48' 44.50" 1.000E-01 0.500 F 0.242 -0.290 20.2 V 0.70 0.15 o 691 0.77 Yes Yes
2011SU232 O C 2011-10-21.16284 1.000E-05 01:35:02.620 1.500E-01 0.500 F -0.326 0.046 +18° 48' 27.50" 1.000E-01 0.500 F 0.242 0.416 20.1 V 0.70 0.05 o 691 0.86 Yes Yes
2011SU232 O C 2011-10-21.17043 1.000E-05 01:35:02.490 1.500E-01 0.500 F -0.326 -0.078 +18° 48' 09.10" 1.000E-01 0.500 F 0.242 -0.273 20.1 V 0.70 0.05 o 691 0.58 Yes Yes
2011SW71 O C 2011-10-21.18171 1.000E-05 02:27:32.480 1.500E-01 0.500 F -0.290 -0.379 +18° 24' 53.50" 1.000E-01 0.500 F 0.201 0.086 20.5 V 0.70 -0.51 o 691 0.80 Yes Yes
2011SW71 O C 2011-10-21.19948 1.000E-05 02:27:30.770 1.500E-01 0.500 F -0.290 -0.155 +18° 25' 13.80" 1.000E-01 0.500 F 0.201 0.303 21.1 V 0.70 0.09 o 691 0.70 Yes Yes
2011SW71 O C 2011-10-21.21725 1.000E-05 02:27:29.030 1.500E-01 0.500 F -0.290 -0.120 +18° 25' 33.60" 1.000E-01 0.500 F 0.201 0.110 20.7 V 0.70 -0.31 o 691 0.34 Yes Yes
2001UE5 O C 2011-10-21.35555 1.000E-05 03:59:06.760 1.500E-01 0.500 F -0.089 -0.305 +19° 37' 46.80" 1.000E-01 0.500 F 0.120 -0.083 19.3 V 0.70 0.45 o 691 0.64 Yes Yes
2011UN20 O C 2011-10-21.36075 1.000E-05 03:47:01.170 1.500E-01 0.500 F -0.010 -0.053 +18° 03' 53.10" 1.000E-01 0.500 F 0.213 -0.453 20.0 V 0.70 -0.12 o 691 0.93 Yes Yes
2001UE5 O C 2011-10-21.37331 1.000E-05 03:59:04.900 1.500E-01 0.500 F -0.089 0.277 +19° 37' 57.00" 1.000E-01 0.500 F 0.120 -0.179 20.4 V 0.70 1.55 o 691 0.66 Yes Yes
2011UN20 O C 2011-10-21.37851 1.000E-05 03:47:02.350 1.500E-01 0.500 F -0.010 0.348 +18° 01' 59.70" 1.000E-01 0.500 F 0.213 -1.059 20.5 V 0.70 0.38 o 691 2.28 Yes Yes
2001UE5 O C 2011-10-21.39108 1.000E-05 03:59:02.950 1.500E-01 0.500 F -0.089 -0.361 +19° 38' 07.20" 1.000E-01 0.500 F 0.120 -0.211 19.3 V 0.70 0.45 o 691 0.84 Yes Yes
2011UN20 O C 2011-10-21.39627 1.000E-05 03:47:03.480 1.500E-01 0.500 F -0.010 0.106 +18° 00' 07.20" 1.000E-01 0.500 F 0.213 -0.595 20.3 V 0.70 0.18 o 691 1.24 Yes Yes
2007TH19 O C 2011-10-22.29799 1.000E-05 03:19:54.810 1.500E-01 0.500 F -0.250 -0.639 +15° 47' 53.40" 1.000E-01 0.500 F 0.247 -0.121 21.1 V 0.70 -0.48 o 691 1.31 Yes Yes
2007TH19 O C 2011-10-22.31576 1.000E-05 03:19:53.650 1.500E-01 0.500 F -0.250 -0.029 +15° 47' 49.40" 1.000E-01 0.500 F 0.247 0.008 21.8 V 0.70 0.22 o 691 0.06 Yes Yes
2007TH19 O C 2011-10-22.33353 1.000E-05 03:19:52.430 1.500E-01 0.500 F -0.250 -0.263 +15° 47' 45.60" 1.000E-01 0.500 F 0.247 0.353 21.2 V 0.70 -0.38 o 691 0.88 Yes Yes
2010JF O C t 2011-10-22.41014 1.000E-05 04:08:11.640 1.500E-01 0.500 F -0.113 0.553 +22° 48' 18.40" 1.000E-01 0.500 F 0.191 -0.643 20.9 V 0.70 1.10 o 691 1.73 Yes Yes
2011UU O C t 2011-10-22.41014 1.000E-05 04:04:15.140 1.500E-01 0.500 F -0.134 -0.202 +22° 49' 10.30" 1.000E-01 0.500 F 0.204 -0.300 21.3 V 0.70 0.81 o 691 0.73 Yes Yes
2010JF O C t 2011-10-22.42793 1.000E-05 04:08:11.040 1.500E-01 0.500 F -0.113 0.503 +22° 47' 04.30" 1.000E-01 0.500 F 0.191 -1.280 o 691 2.80 Yes No
2011UU O C t 2011-10-22.42793 1.000E-05 04:04:19.920 1.500E-01 0.500 F -0.134 0.255 +22° 48' 30.20" 1.000E-01 0.500 F 0.204 -0.602 21.0 V 0.70 0.51 o 691 1.32 Yes Yes
2010JF O C t 2011-10-22.44572 1.000E-05 04:08:10.420 1.500E-01 0.500 F -0.113 0.160 +22° 45' 51.70" 1.000E-01 0.500 F 0.191 -0.294 o 691 0.68 Yes No
2011UU O C t 2011-10-22.44572 1.000E-05 04:04:24.670 1.500E-01 0.500 F -0.134 0.225 +22° 47' 50.40" 1.000E-01 0.500 F 0.204 -0.382 20.4 V 0.70 -0.09 o 691 0.90 Yes Yes
2011QY11 O C H 2011-10-23.23140 1.000E-05 02:55:15.280 1.500E-01 0.500 F -0.156 0.369 +22° 34' 08.40" 1.000E-01 0.500 F 0.302 -0.073 21.1 V 0.70 -0.26 o 691 0.78 Yes Yes
1996TY11 O C 2011-10-23.23901 1.000E-05 02:56:25.430 1.500E-01 0.500 F -0.231 -0.385 +20° 36' 24.10" 1.000E-01 0.500 F 0.321 -0.367 20.3 V 0.70 -0.04 o 691 1.07 Yes Yes
2007QX14 O C H 2011-10-23.24149 1.000E-05 03:04:44.470 1.500E-01 0.500 F -0.108 0.526 +20° 27' 39.40" 1.000E-01 0.500 F 0.255 -0.146 o 691 1.10 Yes No
2011QY11 O C H 2011-10-23.24919 1.000E-05 02:55:15.020 1.500E-01 0.500 F -0.156 -0.651 +22° 34' 07.80" 1.000E-01 0.500 F 0.302 -0.378 21.0 V 0.70 -0.36 o 691 1.57 Yes Yes
1996TY11 O C 2011-10-23.25681 1.000E-05 02:56:22.760 1.500E-01 0.500 F -0.231 -0.249 +20° 36' 28.60" 1.000E-01 0.500 F 0.321 -0.064 20.3 V 0.70 -0.04 o 691 0.52 Yes Yes
2007QX14 O C H 2011-10-23.25929 1.000E-05 03:04:43.160 1.500E-01 0.500 F -0.108 -0.064 +20° 27' 36.10" 1.000E-01 0.500 F 0.255 -0.575 o 691 1.16 Yes No
2011QY11 O C H 2011-10-23.26700 1.000E-05 02:55:14.840 1.500E-01 0.500 F -0.156 -0.343 +22° 34' 07.50" 1.000E-01 0.500 F 0.302 -0.259 21.1 V 0.70 -0.26 o 691 0.90 Yes Yes
1996TY11 O C 2011-10-23.27461 1.000E-05 02:56:20.070 1.500E-01 0.500 F -0.231 -0.298 +20° 36' 32.60" 1.000E-01 0.500 F 0.321 -0.217 20.0 V 0.70 -0.34 o 691 0.74 Yes Yes
2007QX14 O C H 2011-10-23.27709 1.000E-05 03:04:41.910 1.500E-01 0.500 F -0.108 0.223 +20° 27' 33.00" 1.000E-01 0.500 F 0.255 -0.785 o 691 1.64 Yes No
2011UW114 O C 2011-10-23.28440 1.000E-05 03:26:58.220 1.500E-01 0.500 F -0.213 -0.129 +18° 48' 27.30" 1.000E-01 0.500 F 0.340 -0.028 20.8 V 0.70 0.47 o 691 0.27 Yes Yes
2011UW114 O C 2011-10-23.30218 1.000E-05 03:27:00.440 1.500E-01 0.500 F -0.213 -0.270 +18° 48' 06.50" 1.000E-01 0.500 F 0.340 0.003 20.4 V 0.70 0.07 o 691 0.55 Yes Yes
2011UW114 O C 2011-10-23.31993 1.000E-05 03:27:02.670 1.500E-01 0.500 F -0.213 -0.048 +18° 47' 45.40" 1.000E-01 0.500 F 0.340 -0.186 20.3 V 0.70 -0.03 o 691 0.39 Yes Yes
2011EF17 O C H 2011-10-23.34150 1.000E-05 03:51:08.670 1.500E-01 0.500 F -0.103 -0.412 +26° 25' 24.20" 1.000E-01 0.500 F 0.216 -0.068 20.5 V 0.70 0.30 o 691 0.85 Yes Yes
2011UH21 O C H 2011-10-23.34672 1.000E-05 03:35:25.440 1.500E-01 0.500 F -0.142 -0.056 +24° 11' 03.90" 1.000E-01 0.500 F 0.205 -0.410 20.9 V 0.70 0.35 o 691 0.84 Yes Yes
2011EF17 O C H 2011-10-23.35929 1.000E-05 03:51:05.210 1.500E-01 0.500 F -0.103 -0.750 +26° 25' 17.50" 1.000E-01 0.500 F 0.216 -0.481 20.4 V 0.70 0.20 o 691 1.82 Yes Yes
2011UH21 O C H 2011-10-23.36451 1.000E-05 03:35:29.510 1.500E-01 0.500 F -0.142 0.022 +24° 11' 49.20" 1.000E-01 0.500 F 0.205 0.107 20.9 V 0.70 0.35 o 691 0.22 Yes Yes
2011EF17 O C H 2011-10-23.37709 1.000E-05 03:51:01.850 1.500E-01 0.500 F -0.103 0.300 +26° 25' 10.60" 1.000E-01 0.500 F 0.216 -1.018 o 691 2.16 Yes No
2011UH21 O C H 2011-10-23.38236 1.000E-05 03:35:33.690 1.500E-01 0.500 F -0.079 1.346 +24° 12' 33.50" 1.000E-01 0.500 F 0.187 -0.304 o 691 2.80 Yes No

[1-200] [201-400] [401-600] [601-800] [801-1000] [1001-1200] [1201-1400] [1401-1600] [1601-1800] [1801-2000] [2001-2200] [2201-2400] [2401-2600] [2601-2800] [2801-3000] [3001-3200] [3201-3400] [3401-3600] [3601-3800] [3801-4000] [4001-4200] [4201-4400] [4401-4600] [4601-4800] [4801-5000] [5001-5200] [5201-5400] [5401-5600] [5601-5800] [5801-6000] [6001-6200] [6201-6400] [6401-6600] [6601-6800] [6801-7000] [7001-7200] [7201-7400] [7401-7600] [7601-7800] [7801-8000] [8001-8200] [8201-8400] [8401-8600] [8601-8800] [8801-9000] [9001-9200] [9201-9400] [9401-9600] [9601-9800] [9801-10000] [10001-10200] [10201-10400] [10401-10600] [10601-10800] [10801-11000] [11001-11200] [11201-11400] [11401-11600] [11601-11800] [11801-12000] [12001-12200] [12201-12400] [12401-12600] [12601-12800] [12801-13000] [13001-13200] [13201-13400] [13401-13600] [13601-13800] [13801-14000] [14001-14200] [14201-14400] [14401-14600] [14601-14800] [14801-15000] [15001-15200] [15201-15400] [15401-15600] [15601-15800] [15801-16000] [16001-16200] [16201-16400] [16401-16600] [16601-16800] [16801-17000] [17001-17200] [17201-17400] [17401-17600] [17601-17800] [17801-18000] [18001-18200] [18201-18400] [18401-18600] [18601-18800] [18801-19000] [19001-19200] [19201-19400] [19401-19600] [19601-19800] [19801-20000] [20001-20200] [20201-20400] [20401-20600] [20601-20800] [20801-21000] [21001-21200] [21201-21400] [21401-21600] [21601-21800] [21801-22000] [22001-22200] [22201-22400] [22401-22600] [22601-22800] [22801-23000] [23001-23200] [23201-23400] [23401-23600] [23601-23800] [23801-24000] [24001-24200] [24201-24400] [24401-24600] [24601-24800] [24801-25000] [25001-25200] [25201-25400] [25401-25600] [25601-25800] [25801-26000] [26001-26200] [26201-26400] [26401-26600] [26601-26800] [26801-27000] [27001-27200] [27201-27400] [27401-27600] [27601-27800] [27801-28000] [28001-28200] [28201-28400] [28401-28600] [28601-28800] [28801-29000] [29001-29200] [29201-29400] [29401-29600] [29601-29800] [29801-30000] [30001-30200] [30201-30400] [30401-30600] [30601-30800] [30801-31000] [31001-31200] [31201-31400] [31401-31600] [31601-31800] [31801-32000] [32001-32200] [32201-32400] [32401-32600] [32601-32800] [32801-33000] [33001-33200] [33201-33400] [33401-33600] [33601-33800] [33801-34000] [34001-34200] [34201-34400] [34401-34600] [34601-34800] [34801-35000] [35001-35200] [35201-35400] [35401-35600] [35601-35800] [35801-36000] [36001-36200] [36201-36400] [36401-36600] [36601-36800] [36801-37000] [37001-37200] [37201-37400] [37401-37600] [37601-37800] [37801-38000] [38001-38200] [38201-38400] [38401-38600] [38601-38800] [38801-39000] [39001-39200] [39201-39400] [39401-39600] [39601-39800] [39801-40000] [40001-40200] [40201-40400] [40401-40600] [40601-40800] [40801-41000] [41001-41200] [41201-41400] [41401-41600] [41601-41800] [41801-42000] [42001-42200] [42201-42400] [42401-42600] [42601-42800] [42801-43000] [43001-43200] [43201-43400] [43401-43600] [43601-43800] [43801-44000] [44001-44200] [44201-44400] [44401-44600] [44601-44800] [44801-45000] [45001-45200] [45201-45400] [45401-45600] [45601-45800] [45801-46000] [46001-46200] [46201-46400] [46401-46600] [46601-46800] [46801-47000] [47001-47200] [47201-47400] [47401-47600] [47601-47800] [47801-48000] [48001-48200] [48201-48400] [48401-48600] [48601-48800] [48801-49000] [49001-49200] [49201-49400] [49401-49600] [49601-49800] [49801-50000] [50001-50200] [50201-50388]